createdAt,value
2019-03-09T05:44:56.067Z,12.50
2019-03-09T05:50:04.463Z,17.03
2019-03-09T05:55:13.624Z,11.50
2019-03-09T06:00:19.727Z,10.97
2019-03-09T06:05:47.067Z,12.07
2019-03-09T06:10:53.161Z,9.20
2019-03-09T06:15:59.579Z,13.87
2019-03-09T06:21:06.210Z,11.53
2019-03-09T06:26:12.709Z,15.80
2019-03-09T06:31:18.977Z,17.33
2019-03-09T06:36:53.010Z,20.47
2019-03-09T06:42:25.981Z,22.17
2019-03-09T06:47:32.644Z,14.43
2019-03-09T06:52:39.121Z,12.47
2019-03-09T06:57:47.106Z,19.87
2019-03-09T07:02:53.902Z,17.97
2019-03-09T07:08:00.230Z,14.70
2019-03-09T07:13:06.284Z,17.23
2019-03-09T07:18:15.158Z,18.17
2019-03-09T07:23:21.458Z,19.00
2019-03-09T07:28:33.978Z,20.10
2019-03-09T07:33:43.273Z,17.33
2019-03-09T07:38:50.354Z,22.47
2019-03-09T07:43:57.154Z,15.80
2019-03-09T07:49:03.423Z,17.83
2019-03-09T07:54:09.521Z,19.73
2019-03-09T07:59:15.511Z,16.47
2019-03-09T08:04:21.444Z,18.73
2019-03-09T08:09:27.318Z,12.27
2019-03-09T08:14:33.325Z,16.13
2019-03-09T08:19:39.307Z,20.23
2019-03-09T08:24:45.477Z,20.17
2019-03-09T08:29:51.613Z,22.30
2019-03-09T08:34:59.231Z,17.63
2019-03-09T08:40:05.804Z,19.93
2019-03-09T08:45:12.583Z,20.07
2019-03-09T08:50:20.585Z,19.40
2019-03-09T08:55:26.651Z,18.87
2019-03-09T09:00:34.422Z,21.83
2019-03-09T09:05:40.642Z,18.97
2019-03-09T09:10:46.697Z,18.67
2019-03-09T09:15:53.207Z,15.13
2019-03-09T09:20:59.358Z,13.60
2019-03-09T09:26:07.548Z,17.53
2019-03-09T09:31:13.751Z,13.33
2019-03-09T09:36:19.797Z,22.80
2019-03-09T09:41:25.887Z,22.23
2019-03-09T09:46:32.139Z,21.17
2019-03-09T09:51:39.242Z,24.03
2019-03-09T09:56:45.284Z,18.47
2019-03-09T10:01:51.272Z,19.33
2019-03-09T10:06:57.387Z,17.23
2019-03-09T10:12:03.834Z,15.53
2019-03-09T10:17:10.050Z,17.63
2019-03-09T10:22:16.098Z,21.23
2019-03-09T10:27:22.286Z,23.63
2019-03-09T10:32:29.416Z,23.73
2019-03-09T10:37:35.773Z,21.53
2019-03-09T10:42:41.808Z,24.30
2019-03-09T10:47:47.847Z,19.77
2019-03-09T10:52:54.030Z,20.13
2019-03-09T10:58:00.131Z,21.77
2019-03-09T11:03:06.706Z,17.20
2019-03-09T11:08:13.021Z,19.17
2019-03-09T11:13:19.033Z,21.67
2019-03-09T11:18:25.201Z,38.27
2019-03-09T11:23:31.521Z,33.10
2019-03-09T11:28:37.742Z,32.83
2019-03-09T11:33:43.899Z,36.67
2019-03-09T11:38:50.241Z,38.87
2019-03-09T11:43:57.854Z,33.50
2019-03-09T11:49:07.089Z,36.90
2019-03-09T11:54:13.204Z,41.60
2019-03-09T11:59:19.561Z,41.00
2019-03-09T12:04:30.807Z,39.67
2019-03-09T12:09:37.045Z,41.67
2019-03-09T12:14:43.165Z,36.30
2019-03-09T12:19:50.315Z,35.27
2019-03-09T12:24:56.445Z,36.60
2019-03-09T12:30:03.892Z,40.87
2019-03-09T12:35:10.306Z,43.23
2019-03-09T12:40:18.020Z,36.80
2019-03-09T12:45:25.148Z,39.27
2019-03-09T12:50:31.376Z,47.17
2019-03-09T12:55:37.707Z,40.00
2019-03-09T13:00:44.831Z,42.60
2019-03-09T13:05:51.316Z,48.47
2019-03-09T13:10:58.163Z,47.00
2019-03-09T13:16:05.266Z,46.00
2019-03-09T13:21:11.572Z,47.07
2019-03-09T13:26:17.721Z,56.47
2019-03-09T13:31:23.990Z,51.60
2019-03-09T13:36:30.116Z,38.63
2019-03-09T13:41:36.248Z,50.87
2019-03-09T13:46:42.544Z,40.47
2019-03-09T13:51:48.926Z,42.97
2019-03-09T13:56:54.998Z,41.03
2019-03-09T14:02:01.426Z,39.50
2019-03-09T14:07:08.434Z,37.63
2019-03-09T14:12:16.175Z,36.43
2019-03-09T14:17:22.615Z,40.97
2019-03-09T14:22:28.765Z,43.50
2019-03-09T14:27:35.865Z,42.77
2019-03-09T14:32:42.128Z,44.60
2019-03-09T14:37:48.532Z,24.90
2019-03-09T14:42:54.714Z,15.97
2019-03-09T14:48:01.718Z,13.10
2019-03-09T14:53:08.043Z,16.30
2019-03-09T14:58:14.240Z,9.60
2019-03-09T15:03:20.345Z,9.97
2019-03-09T15:08:29.396Z,12.33
2019-03-09T15:13:35.566Z,8.03
2019-03-09T15:18:45.487Z,13.67
2019-03-09T15:23:52.636Z,12.83
2019-03-09T15:28:58.801Z,15.47
2019-03-09T15:34:04.956Z,19.67
2019-03-09T15:39:11.937Z,15.10
2019-03-09T15:44:19.521Z,14.70
2019-03-09T15:49:25.694Z,19.33
2019-03-09T15:54:31.920Z,20.23
2019-03-09T15:59:38.316Z,16.13
2019-03-09T16:04:45.226Z,16.50
2019-03-09T16:09:51.509Z,11.40
2019-03-09T16:15:11.961Z,13.53
2019-03-09T16:20:19.790Z,15.00
2019-03-09T16:25:25.975Z,14.43
2019-03-09T16:30:32.340Z,14.47
2019-03-09T16:35:38.519Z,16.73
2019-03-09T16:40:44.745Z,13.30
2019-03-09T16:45:51.104Z,11.77
2019-03-09T16:50:57.301Z,12.80
2019-03-09T16:56:03.600Z,17.00
2019-03-09T17:01:10.134Z,15.07
2019-03-09T17:06:16.354Z,16.93
2019-03-09T17:11:23.670Z,15.60
2019-03-09T17:16:30.063Z,14.43
2019-03-09T17:21:36.348Z,14.17
2019-03-09T17:26:42.646Z,12.67
2019-03-09T17:31:48.989Z,18.97
2019-03-09T17:36:55.597Z,19.13
2019-03-09T17:42:02.325Z,16.50
2019-03-09T17:47:08.676Z,20.90
2019-03-09T17:52:15.753Z,13.80
2019-03-09T17:57:22.110Z,16.23
2019-03-09T18:02:29.557Z,18.93
2019-03-09T18:07:38.553Z,15.90
2019-03-09T18:12:44.823Z,18.77
2019-03-09T18:17:51.054Z,13.07
2019-03-09T18:22:58.097Z,12.33
2019-03-09T18:28:04.601Z,12.73
2019-03-09T18:33:12.649Z,8.07
2019-03-09T18:38:19.235Z,13.77
2019-03-09T18:43:25.775Z,12.57
2019-03-09T18:48:32.024Z,13.20
2019-03-09T18:53:38.350Z,15.90
2019-03-09T18:58:44.799Z,18.70
2019-03-09T19:03:50.816Z,18.83
2019-03-09T19:08:57.132Z,19.33
2019-03-09T19:14:04.378Z,16.57
2019-03-09T19:19:10.691Z,18.90
2019-03-09T19:24:18.196Z,11.43
2019-03-09T19:29:27.281Z,20.00
2019-03-09T19:34:33.854Z,12.03
2019-03-09T19:39:40.370Z,16.47
2019-03-09T19:44:46.722Z,21.03
2019-03-09T19:49:53.278Z,19.47
2019-03-09T19:54:59.773Z,18.67
2019-03-09T20:00:07.183Z,14.10
2019-03-09T20:05:13.739Z,20.67
2019-03-09T20:10:20.491Z,13.53
2019-03-09T20:15:27.118Z,19.10
2019-03-09T20:20:33.573Z,19.30
2019-03-09T20:25:39.939Z,21.73
2019-03-09T20:30:46.420Z,19.10
2019-03-09T20:35:52.759Z,19.13
2019-03-09T20:40:59.158Z,22.47
2019-03-09T20:46:05.933Z,22.80
2019-03-09T20:51:12.306Z,20.73
2019-03-09T20:56:18.723Z,16.63
2019-03-09T21:01:25.527Z,13.47
2019-03-09T21:06:32.286Z,15.77
2019-03-09T21:11:38.555Z,19.40
2019-03-09T21:16:45.613Z,20.57
2019-03-09T21:21:53.133Z,14.73
2019-03-09T21:26:59.371Z,17.00
2019-03-09T21:32:08.660Z,20.63
2019-03-09T21:37:15.265Z,21.90
2019-03-09T21:42:21.528Z,16.27
2019-03-09T21:47:28.461Z,19.97
2019-03-09T21:52:37.349Z,15.80
2019-03-09T21:57:43.620Z,16.13
2019-03-09T22:02:51.070Z,13.87
2019-03-09T22:07:57.239Z,17.03
2019-03-09T22:13:03.669Z,16.50
2019-03-09T22:18:09.989Z,15.43
2019-03-09T22:23:16.088Z,19.33
2019-03-09T22:28:22.683Z,17.40
2019-03-09T22:33:30.809Z,18.63
2019-03-09T22:38:37.956Z,14.13
2019-03-09T22:43:44.228Z,14.70
2019-03-09T22:48:50.384Z,14.07
2019-03-09T22:53:56.730Z,15.93
2019-03-09T22:59:02.978Z,21.97
2019-03-09T23:04:09.396Z,16.33
2019-03-09T23:09:17.083Z,17.10
2019-03-09T23:14:23.533Z,17.43
2019-03-09T23:19:31.963Z,16.03
2019-03-09T23:24:38.775Z,13.80
2019-03-09T23:29:45.562Z,15.37
2019-03-09T23:34:54.904Z,15.43
2019-03-09T23:40:01.256Z,15.73
2019-03-09T23:45:09.105Z,18.93
2019-03-09T23:50:16.935Z,14.63
2019-03-09T23:55:23.257Z,16.93
